Ride Results

New Italy (18-08-2018)
Ride distance: 80.0 km

Outcomes - New Italy (18-08-2018)
Division No. of Entries Retired / DNE Completed Withdrawn Ineligible V/O Percentage Completed
HW 5 - 5 - - - 100.00%
MW 13 - 12 - - 1 92.31%
LW 7 - 7 - - - 100.00%
JN 7 - 7 - - - 100.00%
Totals 32 - 31 - - 1 96.88%
Results - New Italy (18-08-2018)
No. Rider Horse Place Time Leg Speeds Total
Km/Hr
H/R bpm
Heavyweight
9 Maurice Gray Nathan Park Estasans Legacy 1 (BC) 6:00:41 9.9, 19.8 13.31 36, 44, 48 (Avg:46)
16 Jago Blonde Aloha Desert Thor 2 6:16:30 13.8, 11.7 12.75 31, 39, 48 (Avg:43)
27 Luke Annetts Churinga Taboo 3 6:37:00 12.1, 12.0 12.09 35, 46, 49 (Avg:47)
6 Danny Wall Charlie 4 7:32:00 11.8, 9.6 10.62 40, 49, 60 (Avg:54)
22 Andrea Nix Dunbar Mahadik 5 8:13:00 10.2, 9.2 9.74 28, 38, 43 (Avg:40)
Middleweight
26 Sharon Foster Fortaleza Mystical Silver 1 (BC) 4:46:00 17.3, 16.2 16.78 36, 43, 48 (Avg:45)
23 Karen Lee Markus Romulus 2 5:40:00 17.1, 11.9 14.12 34, 42, 49 (Avg:45)
31 Ashley Thomas Glenelen Park Phoenix 3 5:45:00 14.5, 13.3 13.91 40, 46, 56 (Avg:51)
2 Damien Keys Elfar Tilly 4 6:00:40 13.5, 13.0 13.31 31, 39, 45 (Avg:42)
7 David Urquhart Danic Park Maahallo 5 6:03:11 13.2, 13.1 13.22 37, 44, 48 (Avg:46)
10 Dean Chamberlain Talika Showdown 6 6:20:00 12.9, 12.3 12.63 30, 45, 52 (Avg:48)
30 Ellie Hill Wyandra 7 6:20:20 12.9, 12.2 12.62 40, 46, 60 (Avg:53)
29 Renae Kuhn Bourhani Albaraq 8 6:28:50 13.0, 11.7 12.34 34, 41, 45 (Avg:43)
28 Barbara Woods Splendacrest Perfection 8 6:28:50 13.0, 11.7 12.34 32, 44, 51 (Avg:47)
19 Corey Nix Homeleigh Mountain Kosmo 10 6:40:00 11.8, 12.1 12.00 39, 44, 53 (Avg:48)
21 Derryn Nix Macrocarpa Pleiade 11 8:13:00 10.2, 9.2 9.74 40, 51, 45 (Avg:48)
34 Judith Burton Woodbourne Buck Brown 12 8:31:00 9.6, 9.1 9.39 42, 42, 44 (Avg:43)
25 Christopher Schofield Briallyn Alimah Lame L1 0:00:00 17.3 - 31, 41 (Avg:41)
Lightweight
33 Alana Simpson Meea 1 (BC) 5:40:00 14.5, 13.7 14.12 36, 46, 52 (Avg:49)
32 Bill Ward BTP Amir 2 6:03:10 13.3, 13.1 13.22 34, 41, 44 (Avg:42)
14 Clare Fleming Warrawee Gay Paree 3 6:16:00 13.8, 11.8 12.77 32, 43, 43 (Avg:43)
11 Annette Chamberlain Annordean Lady Annette 4 6:20:00 12.9, 12.3 12.63 22, 33, 39 (Avg:36)
12 Miki Bell Flemingo Aragon 5 6:24:20 12.6, 12.3 12.49 40, 54, 55 (Avg:54)
4 Shelley Chapman Cameo Pluto 6 6:38:00 12.0, 12.0 12.06 42, 48, 55 (Avg:51)
8 Tracey Hutchinson Woodbourne Bubbles 7 8:31:00 9.6, 9.1 9.39 36, 42, 40 (Avg:41)
Junior
24 Modena Schofield-Foster Sharabel Kalarney 1 (BC) 4:46:00 17.3, 16.2 16.78 41, 42, 54 (Avg:48)
15 Miranda Hodges Flemingo Bombastic 2 6:16:00 13.8, 11.8 12.77 33, 46, 52 (Avg:49)
13 Scarlet McQueen Flemingo Bomsaway 3 6:24:20 12.6, 12.3 12.49 28, 35, 38 (Avg:36)
3 Maeve Paten Larntainey Silver Treasure 4 6:38:00 12.0, 12.0 12.06 36, 41, 50 (Avg:45)
20 Sanjay Nix Castlebar Consort 5 6:40:00 11.8, 12.1 12.00 33, 41, 44 (Avg:42)
17 Talyn Nix Homeleigh Mountain Khalid's Komet 5 6:40:00 11.8, 12.1 12.00 30, 39, 46 (Avg:42)
5 Mylie Wall Fabio 7 7:32:00 11.8, 9.6 10.62 29, 33, 48 (Avg:40)